createdAt,value
2019-04-04T00:02:17.070Z,11.00
2019-04-04T00:04:48.772Z,11.00
2019-04-04T00:07:19.338Z,11.00
2019-04-04T00:09:50.250Z,11.00
2019-04-04T00:12:20.692Z,11.00
2019-04-04T00:14:51.186Z,11.00
2019-04-04T00:17:23.356Z,11.00
2019-04-04T00:19:53.983Z,11.10
2019-04-04T00:22:24.668Z,11.10
2019-04-04T00:24:56.051Z,11.10
2019-04-04T00:27:26.646Z,11.20
2019-04-04T00:29:57.278Z,11.20
2019-04-04T00:32:27.892Z,11.20
2019-04-04T00:34:59.836Z,11.20
2019-04-04T00:37:30.643Z,11.10
2019-04-04T00:40:01.133Z,11.10
2019-04-04T00:42:31.723Z,11.00
2019-04-04T00:45:02.384Z,10.90
2019-04-04T00:47:33.023Z,10.90
2019-04-04T00:50:06.119Z,10.90
2019-04-04T00:52:36.269Z,10.80
2019-04-04T00:55:07.003Z,10.80
2019-04-04T00:57:37.613Z,10.70
2019-04-04T01:00:08.484Z,10.70
2019-04-04T01:02:39.120Z,10.70
2019-04-04T01:05:09.706Z,10.60
2019-04-04T01:07:40.354Z,10.60
2019-04-04T01:10:11.044Z,10.60
2019-04-04T01:12:41.673Z,10.60
2019-04-04T01:15:12.294Z,10.50
2019-04-04T01:17:42.839Z,10.50
2019-04-04T01:20:13.514Z,10.50
2019-04-04T01:22:44.017Z,10.50
2019-04-04T01:25:14.490Z,10.50
2019-04-04T01:27:45.686Z,10.40
2019-04-04T01:30:17.166Z,10.40
2019-04-04T01:32:48.148Z,10.40
2019-04-04T01:35:22.535Z,10.30
2019-04-04T01:37:51.611Z,10.30
2019-04-04T01:40:23.326Z,10.30
2019-04-04T01:42:53.884Z,10.30
2019-04-04T01:45:24.394Z,10.30
2019-04-04T01:47:54.909Z,10.30
2019-04-04T01:50:25.462Z,10.30
2019-04-04T01:52:58.865Z,10.30
2019-04-04T01:55:28.000Z,10.30
2019-04-04T01:57:58.519Z,10.30
2019-04-04T02:00:29.154Z,10.20
2019-04-04T02:02:59.646Z,10.20
2019-04-04T02:05:30.188Z,10.20
2019-04-04T02:08:01.480Z,10.20
2019-04-04T02:10:34.569Z,10.20
2019-04-04T02:13:04.224Z,10.10
2019-04-04T02:15:34.738Z,10.10
2019-04-04T02:18:05.203Z,10.10
2019-04-04T02:20:35.828Z,10.00
2019-04-04T02:23:06.358Z,9.90
2019-04-04T02:25:36.916Z,9.90
2019-04-04T02:28:08.926Z,9.80
2019-04-04T02:30:39.666Z,9.80
2019-04-04T02:33:10.207Z,9.80
2019-04-04T02:35:43.661Z,9.80
2019-04-04T02:38:12.945Z,9.80
2019-04-04T02:40:43.448Z,9.80
2019-04-04T02:43:16.294Z,9.80
2019-04-04T02:45:47.169Z,9.80
2019-04-04T02:48:17.697Z,9.80
2019-04-04T02:50:48.289Z,9.80
2019-04-04T02:53:20.750Z,9.90
2019-04-04T02:55:52.255Z,9.90
2019-04-04T02:58:22.769Z,9.90
2019-04-04T03:00:53.346Z,9.90
2019-04-04T03:03:23.868Z,9.80
2019-04-04T03:05:54.342Z,9.80
2019-04-04T03:08:24.825Z,9.80
2019-04-04T03:10:55.414Z,9.80
2019-04-04T03:13:26.029Z,9.90
2019-04-04T03:15:57.964Z,9.80
2019-04-04T03:18:28.483Z,9.90
2019-04-04T03:20:59.010Z,9.90
2019-04-04T03:23:33.026Z,9.90
2019-04-04T03:26:01.733Z,9.80
2019-04-04T03:28:32.513Z,9.90
2019-04-04T03:31:04.199Z,9.80
2019-04-04T03:33:34.963Z,9.90
2019-04-04T03:36:05.504Z,9.80
2019-04-04T03:38:35.991Z,9.80
2019-04-04T03:41:06.456Z,9.80
2019-04-04T03:43:36.953Z,9.80
2019-04-04T03:46:07.463Z,9.80
2019-04-04T03:48:37.985Z,9.80
2019-04-04T03:51:08.486Z,9.90
2019-04-04T03:53:41.422Z,9.90
2019-04-04T03:56:11.928Z,9.90
2019-04-04T03:58:42.497Z,10.00
2019-04-04T04:01:13.371Z,10.00
2019-04-04T04:03:44.036Z,10.00
2019-04-04T04:06:14.649Z,10.00
2019-04-04T04:08:47.200Z,10.10
2019-04-04T04:11:17.669Z,10.10
2019-04-04T04:13:49.892Z,10.10
2019-04-04T04:16:20.426Z,10.10
2019-04-04T04:18:54.027Z,10.20
2019-04-04T04:21:23.129Z,10.20
2019-04-04T04:23:56.818Z,10.20
2019-04-04T04:26:25.913Z,10.20
2019-04-04T04:28:56.384Z,10.20
2019-04-04T04:31:26.875Z,10.20
2019-04-04T04:34:00.479Z,10.30
2019-04-04T04:36:29.646Z,10.30
2019-04-04T04:39:00.359Z,10.30
2019-04-04T04:41:32.598Z,10.40
2019-04-04T04:44:05.716Z,10.40
2019-04-04T04:46:35.334Z,10.50
2019-04-04T04:49:05.878Z,10.50
2019-04-04T04:51:36.328Z,10.50
2019-04-04T04:54:06.832Z,10.60
2019-04-04T04:56:37.356Z,10.70
2019-04-04T04:59:08.026Z,10.80
2019-04-04T05:01:41.168Z,11.00
2019-04-04T05:04:11.722Z,11.70
2019-04-04T05:06:42.254Z,12.40
2019-04-04T05:09:14.640Z,13.30
2019-04-04T05:11:45.301Z,14.00
2019-04-04T05:14:15.734Z,14.40
2019-04-04T05:16:46.308Z,14.90
2019-04-04T05:19:17.114Z,15.30
2019-04-04T05:21:49.088Z,15.80
2019-04-04T05:24:19.589Z,16.00
2019-04-04T05:26:50.075Z,16.40
2019-04-04T05:29:20.683Z,16.50
2019-04-04T05:31:51.285Z,16.40
2019-04-04T05:34:21.907Z,16.70
2019-04-04T05:36:52.455Z,17.10
2019-04-04T05:39:23.164Z,17.20
2019-04-04T05:41:53.775Z,17.40
2019-04-04T05:44:24.345Z,17.70
2019-04-04T05:46:54.941Z,18.10
2019-04-04T05:49:25.415Z,18.40
2019-04-04T05:51:56.075Z,18.70
2019-04-04T05:54:26.605Z,18.50
2019-04-04T05:56:57.110Z,18.40
2019-04-04T05:59:27.659Z,18.70
2019-04-04T06:01:58.291Z,18.80
2019-04-04T06:04:28.760Z,18.60
2019-04-04T06:06:59.244Z,18.50
2019-04-04T06:09:29.920Z,19.00
2019-04-04T06:12:00.462Z,18.90
2019-04-04T06:14:31.077Z,19.30
2019-04-04T06:17:01.598Z,19.90
2019-04-04T06:19:32.255Z,20.20
2019-04-04T06:22:02.797Z,19.90
2019-04-04T06:24:33.334Z,18.50
2019-04-04T06:27:03.843Z,17.50
2019-04-04T06:29:34.400Z,17.00
2019-04-04T06:32:05.082Z,16.50
2019-04-04T06:34:35.589Z,16.10
2019-04-04T06:37:06.193Z,15.80
2019-04-04T06:39:36.663Z,15.70
2019-04-04T06:42:07.118Z,15.60
2019-04-04T06:44:37.717Z,15.60
2019-04-04T06:47:08.231Z,15.70
2019-04-04T06:49:38.757Z,15.90
2019-04-04T06:52:09.437Z,16.40
2019-04-04T06:54:41.171Z,16.70
2019-04-04T06:57:11.759Z,16.90
2019-04-04T06:59:43.279Z,17.10
2019-04-04T07:02:15.316Z,17.30
2019-04-04T07:04:50.181Z,17.50
2019-04-04T07:07:21.355Z,17.40
2019-04-04T07:09:51.849Z,17.60
2019-04-04T07:12:28.100Z,17.40
2019-04-04T07:14:55.997Z,17.10
2019-04-04T07:17:26.525Z,17.30
2019-04-04T07:19:57.026Z,17.40
2019-04-04T07:22:27.554Z,17.70
2019-04-04T07:25:00.966Z,17.60
2019-04-04T07:27:30.326Z,17.70
2019-04-04T07:30:01.037Z,17.80
2019-04-04T07:32:31.579Z,17.80
2019-04-04T07:35:02.114Z,17.80
2019-04-04T07:37:32.641Z,17.50
2019-04-04T07:40:04.388Z,17.50
2019-04-04T07:42:35.199Z,17.60
2019-04-04T07:45:06.758Z,17.50
2019-04-04T07:47:37.283Z,17.50
2019-04-04T07:50:08.139Z,17.50
2019-04-04T07:52:38.904Z,17.80
2019-04-04T07:55:10.829Z,17.70
2019-04-04T07:57:41.571Z,17.60
2019-04-04T08:00:12.605Z,17.60
2019-04-04T08:02:43.351Z,17.40
2019-04-04T08:05:13.943Z,17.40
2019-04-04T08:07:44.437Z,17.40
2019-04-04T08:10:20.984Z,17.30
2019-04-04T08:12:47.482Z,17.40
2019-04-04T08:15:19.039Z,17.20
2019-04-04T08:17:49.588Z,17.30
2019-04-04T08:20:20.110Z,17.30
2019-04-04T08:22:50.625Z,17.30
2019-04-04T08:25:21.221Z,17.20
2019-04-04T08:27:51.775Z,17.30
2019-04-04T08:30:22.289Z,17.50
2019-04-04T08:32:52.891Z,17.70
2019-04-04T08:35:23.442Z,17.80
2019-04-04T08:37:54.096Z,17.60
2019-04-04T08:40:24.569Z,17.40
2019-04-04T08:42:55.256Z,17.50
2019-04-04T08:45:25.750Z,17.70
2019-04-04T08:47:56.285Z,17.60
2019-04-04T08:50:28.820Z,17.30
2019-04-04T08:53:00.749Z,17.50
2019-04-04T08:55:31.276Z,17.50
2019-04-04T08:58:01.888Z,17.70
2019-04-04T09:00:32.409Z,17.60
2019-04-04T09:03:03.018Z,17.60
2019-04-04T09:05:34.623Z,17.50
2019-04-04T09:08:05.055Z,17.60
2019-04-04T09:10:35.694Z,17.40
2019-04-04T09:13:06.252Z,17.40
2019-04-04T09:15:36.833Z,17.30
2019-04-04T09:18:07.674Z,17.30
2019-04-04T09:20:38.171Z,17.50
2019-04-04T09:23:08.911Z,17.50
2019-04-04T09:25:40.841Z,17.50
2019-04-04T09:28:12.599Z,17.60
2019-04-04T09:30:43.122Z,17.70
2019-04-04T09:33:14.742Z,17.70
2019-04-04T09:35:45.227Z,17.80
2019-04-04T09:38:15.714Z,17.70
2019-04-04T09:40:46.205Z,17.90
2019-04-04T09:43:16.718Z,17.80
2019-04-04T09:45:47.411Z,17.70
2019-04-04T09:48:17.884Z,17.80
2019-04-04T09:50:48.445Z,17.90
2019-04-04T09:53:18.972Z,18.00
2019-04-04T09:55:49.528Z,18.10
2019-04-04T09:58:20.062Z,18.00
2019-04-04T10:00:51.799Z,18.10
2019-04-04T10:03:22.382Z,18.20
2019-04-04T10:05:54.012Z,18.50
2019-04-04T10:08:24.603Z,18.60
2019-04-04T10:10:55.132Z,18.60
2019-04-04T10:13:25.627Z,18.40
2019-04-04T10:15:56.108Z,18.40
2019-04-04T10:18:26.712Z,18.40
2019-04-04T10:20:57.163Z,18.40
2019-04-04T10:23:27.751Z,18.70
2019-04-04T10:25:58.419Z,18.90
2019-04-04T10:28:28.995Z,19.10
2019-04-04T10:30:59.571Z,18.70
2019-04-04T10:33:30.243Z,18.60
2019-04-04T10:36:00.719Z,18.60
2019-04-04T10:38:31.244Z,18.70
2019-04-04T10:41:01.787Z,18.70
2019-04-04T10:43:32.515Z,18.90
2019-04-04T10:46:03.131Z,19.00
2019-04-04T10:48:33.656Z,18.90
2019-04-04T10:51:04.240Z,18.80
2019-04-04T10:53:34.772Z,18.90
2019-04-04T10:56:05.300Z,18.90
2019-04-04T10:58:36.693Z,19.00
2019-04-04T11:01:07.372Z,19.10
2019-04-04T11:03:38.052Z,19.10
2019-04-04T11:06:08.603Z,19.00
2019-04-04T11:08:39.074Z,18.90
2019-04-04T11:11:09.789Z,19.00
2019-04-04T11:13:40.301Z,19.00
2019-04-04T11:16:10.863Z,19.20
2019-04-04T11:18:41.422Z,19.50
2019-04-04T11:21:12.061Z,19.70
2019-04-04T11:23:42.601Z,19.80
2019-04-04T11:26:14.208Z,19.90
2019-04-04T11:28:44.837Z,19.60
2019-04-04T11:31:15.330Z,19.30
2019-04-04T11:33:45.880Z,19.40
2019-04-04T11:36:16.586Z,19.40
2019-04-04T11:38:47.165Z,19.60
2019-04-04T11:41:17.690Z,19.60
2019-04-04T11:43:48.258Z,19.50
2019-04-04T11:46:18.802Z,19.60
2019-04-04T11:48:49.444Z,19.60
2019-04-04T11:51:19.989Z,19.80
2019-04-04T11:53:50.541Z,20.00
2019-04-04T11:56:21.053Z,19.90
2019-04-04T11:58:51.594Z,19.70
2019-04-04T12:01:23.177Z,19.60
2019-04-04T12:03:53.776Z,19.50
2019-04-04T12:06:24.366Z,19.40
2019-04-04T12:08:54.824Z,19.50
2019-04-04T12:11:25.356Z,19.50
2019-04-04T12:13:55.959Z,19.60
2019-04-04T12:16:26.511Z,19.70
2019-04-04T12:18:57.288Z,19.80
2019-04-04T12:21:27.774Z,19.80
2019-04-04T12:23:58.280Z,19.70
2019-04-04T12:26:28.769Z,20.00
2019-04-04T12:28:59.404Z,19.70
2019-04-04T12:31:29.965Z,19.50
2019-04-04T12:34:02.070Z,19.30
2019-04-04T12:36:32.973Z,19.30
2019-04-04T12:39:03.647Z,19.40
2019-04-04T12:41:35.874Z,19.30
2019-04-04T12:44:06.617Z,19.20
2019-04-04T12:46:37.646Z,19.20
2019-04-04T12:49:09.309Z,19.60
2019-04-04T12:51:39.981Z,19.60
2019-04-04T12:54:10.691Z,19.80
2019-04-04T12:56:41.260Z,19.80
2019-04-04T12:59:11.737Z,19.90
2019-04-04T13:01:42.476Z,20.00
2019-04-04T13:04:13.409Z,20.20
2019-04-04T13:06:44.043Z,20.30
2019-04-04T13:09:14.592Z,20.50
2019-04-04T13:11:45.131Z,20.40
2019-04-04T13:14:15.801Z,20.30
2019-04-04T13:16:46.314Z,20.10
2019-04-04T13:19:16.858Z,20.10
2019-04-04T13:21:47.472Z,20.20
2019-04-04T13:24:18.024Z,20.30
2019-04-04T13:26:48.552Z,20.20
2019-04-04T13:29:19.078Z,20.20
2019-04-04T13:31:49.628Z,20.10
2019-04-04T13:34:20.210Z,20.10
2019-04-04T13:36:50.766Z,20.10
2019-04-04T13:39:21.340Z,20.10
2019-04-04T13:41:51.793Z,20.00
2019-04-04T13:44:23.551Z,20.00
2019-04-04T13:46:54.842Z,20.00
2019-04-04T13:49:25.445Z,20.10
2019-04-04T13:51:55.974Z,20.00
2019-04-04T13:54:26.498Z,20.00
2019-04-04T13:56:57.127Z,20.00
2019-04-04T13:59:28.487Z,20.00
2019-04-04T14:01:59.228Z,19.60
2019-04-04T14:04:29.798Z,19.60
2019-04-04T14:07:02.446Z,19.60
2019-04-04T14:09:32.615Z,19.60
2019-04-04T14:12:03.176Z,19.60
2019-04-04T14:14:33.812Z,19.70
2019-04-04T14:17:06.440Z,19.70
2019-04-04T14:19:37.086Z,19.70
2019-04-04T14:22:07.764Z,19.60
2019-04-04T14:24:38.347Z,19.50
2019-04-04T14:27:08.990Z,19.50
2019-04-04T14:29:40.467Z,19.60
2019-04-04T14:32:11.217Z,19.60
2019-04-04T14:34:43.130Z,19.70
2019-04-04T14:37:13.800Z,19.60
2019-04-04T14:39:44.382Z,19.60
2019-04-04T14:42:15.218Z,19.60
2019-04-04T14:44:45.667Z,19.60
2019-04-04T14:47:16.907Z,19.60
2019-04-04T14:49:47.598Z,19.70
2019-04-04T14:52:19.849Z,19.60
2019-04-04T14:54:50.318Z,19.60
2019-04-04T14:57:20.825Z,19.60
2019-04-04T14:59:51.368Z,19.60
2019-04-04T15:02:22.115Z,19.40
2019-04-04T15:04:52.679Z,19.50
2019-04-04T15:07:23.295Z,19.60
2019-04-04T15:09:53.997Z,19.50
2019-04-04T15:12:24.506Z,19.30
2019-04-04T15:14:56.107Z,19.30
2019-04-04T15:17:26.587Z,19.20
2019-04-04T15:19:57.173Z,19.30
2019-04-04T15:22:27.759Z,19.40
2019-04-04T15:24:58.360Z,19.40
2019-04-04T15:27:28.938Z,19.30
2019-04-04T15:30:01.104Z,19.10
2019-04-04T15:32:31.808Z,18.90
2019-04-04T15:35:02.419Z,18.80
2019-04-04T15:37:33.152Z,18.60
2019-04-04T15:40:03.760Z,18.50
2019-04-04T15:42:34.270Z,18.40
2019-04-04T15:45:04.921Z,18.40
2019-04-04T15:47:35.581Z,18.30
2019-04-04T15:50:06.727Z,18.30
2019-04-04T15:52:37.343Z,18.20
2019-04-04T15:55:07.999Z,18.20
2019-04-04T15:57:38.596Z,18.20
2019-04-04T16:00:09.650Z,18.20
2019-04-04T16:02:40.252Z,18.10
2019-04-04T16:05:10.941Z,18.10
2019-04-04T16:07:42.565Z,18.10
2019-04-04T16:10:13.236Z,18.10
2019-04-04T16:12:43.962Z,18.20
2019-04-04T16:15:14.627Z,18.20
2019-04-04T16:17:45.259Z,18.20
2019-04-04T16:20:16.549Z,18.20
2019-04-04T16:22:47.128Z,18.10
2019-04-04T16:25:17.707Z,18.10
2019-04-04T16:27:48.390Z,18.00
2019-04-04T16:30:18.972Z,17.90
2019-04-04T16:32:49.533Z,17.90
2019-04-04T16:35:20.014Z,17.80
2019-04-04T16:37:52.155Z,17.70
2019-04-04T16:40:22.821Z,17.70
2019-04-04T16:42:54.488Z,17.60
2019-04-04T16:45:25.049Z,17.50
2019-04-04T16:47:55.683Z,17.40
2019-04-04T16:50:26.241Z,17.30
2019-04-04T16:52:56.840Z,17.20
2019-04-04T16:55:27.681Z,17.10
2019-04-04T16:57:58.414Z,17.00
2019-04-04T17:00:29.971Z,17.00
2019-04-04T17:03:00.547Z,16.90
2019-04-04T17:05:31.180Z,16.80
2019-04-04T17:08:02.096Z,16.80
2019-04-04T17:10:35.312Z,16.70
2019-04-04T17:13:05.946Z,16.60
2019-04-04T17:15:36.513Z,16.50
2019-04-04T17:18:07.056Z,16.50
2019-04-04T17:20:37.599Z,16.40
2019-04-04T17:23:08.319Z,16.30
2019-04-04T17:25:38.937Z,16.20
2019-04-04T17:28:09.971Z,16.10
2019-04-04T17:30:41.970Z,16.00
2019-04-04T17:33:14.069Z,15.90
2019-04-04T17:35:47.440Z,15.80
2019-04-04T17:38:19.360Z,15.80
2019-04-04T17:40:50.058Z,15.80
2019-04-04T17:43:20.814Z,15.70
2019-04-04T17:45:52.923Z,15.70
2019-04-04T17:48:24.691Z,15.70
2019-04-04T17:50:55.311Z,15.60
2019-04-04T17:53:26.031Z,15.50
2019-04-04T17:55:57.070Z,15.40
2019-04-04T17:58:31.024Z,15.40
2019-04-04T18:01:01.682Z,15.30
2019-04-04T18:03:32.680Z,15.30
2019-04-04T18:06:03.198Z,15.20
2019-04-04T18:08:35.342Z,15.20
2019-04-04T18:11:06.168Z,15.20
2019-04-04T18:13:36.768Z,15.10
2019-04-04T18:16:07.528Z,15.00
2019-04-04T18:18:38.181Z,15.00
2019-04-04T18:21:09.543Z,14.90
2019-04-04T18:23:40.243Z,14.90
2019-04-04T18:26:11.043Z,14.80
2019-04-04T18:28:41.803Z,14.70
2019-04-04T18:31:12.504Z,14.70
2019-04-04T18:33:43.465Z,14.60
2019-04-04T18:36:14.338Z,14.60
2019-04-04T18:38:44.991Z,14.60
2019-04-04T18:41:17.061Z,14.50
2019-04-04T18:43:47.920Z,14.50
2019-04-04T18:46:18.461Z,14.50
2019-04-04T18:48:51.354Z,14.40
2019-04-04T18:51:21.916Z,14.50
2019-04-04T18:53:52.654Z,14.50
2019-04-04T18:56:25.067Z,14.50
2019-04-04T18:58:56.182Z,14.50
2019-04-04T19:01:28.409Z,14.50
2019-04-04T19:03:58.917Z,14.50
2019-04-04T19:06:29.663Z,14.50
2019-04-04T19:09:00.221Z,14.40
2019-04-04T19:11:31.074Z,14.40
2019-04-04T19:14:01.698Z,14.40
2019-04-04T19:16:32.283Z,14.50
2019-04-04T19:19:02.824Z,14.50
2019-04-04T19:21:33.545Z,14.50
2019-04-04T19:24:04.316Z,14.60
2019-04-04T19:26:34.902Z,14.60
2019-04-04T19:29:05.789Z,14.70
2019-04-04T19:31:36.555Z,14.70
2019-04-04T19:34:07.254Z,14.60
2019-04-04T19:36:37.866Z,14.60
2019-04-04T19:39:12.346Z,14.60
2019-04-04T19:41:43.114Z,14.60
2019-04-04T19:44:13.925Z,14.60
2019-04-04T19:46:44.506Z,14.60
2019-04-04T19:49:15.191Z,14.60
2019-04-04T19:51:46.236Z,14.60
2019-04-04T19:54:19.213Z,14.60
2019-04-04T19:56:49.323Z,14.50
2019-04-04T19:59:19.897Z,14.50
2019-04-04T20:01:51.643Z,14.50
2019-04-04T20:04:22.186Z,14.40
2019-04-04T20:06:52.719Z,14.40
2019-04-04T20:09:23.363Z,14.30
2019-04-04T20:11:53.892Z,14.30
2019-04-04T20:14:28.638Z,14.30
2019-04-04T20:16:56.894Z,14.30
2019-04-04T20:19:27.500Z,14.30
2019-04-04T20:21:58.119Z,14.30
2019-04-04T20:24:28.842Z,14.30
2019-04-04T20:26:59.417Z,14.30
2019-04-04T20:29:33.312Z,14.30
2019-04-04T20:32:03.852Z,14.30
2019-04-04T20:34:34.410Z,14.40
2019-04-04T20:37:05.100Z,14.40
2019-04-04T20:39:35.650Z,14.40
2019-04-04T20:42:06.257Z,14.50
2019-04-04T20:44:36.748Z,14.50
2019-04-04T20:47:07.498Z,14.50
2019-04-04T20:49:37.908Z,14.50
2019-04-04T20:52:08.471Z,14.60
2019-04-04T20:54:38.993Z,14.60
2019-04-04T20:57:09.427Z,14.70
2019-04-04T20:59:42.055Z,14.70
2019-04-04T21:02:12.630Z,14.70
2019-04-04T21:04:43.362Z,14.70
2019-04-04T21:07:13.871Z,14.80
2019-04-04T21:09:44.451Z,14.80
2019-04-04T21:12:15.051Z,14.80
2019-04-04T21:14:45.632Z,14.80
2019-04-04T21:17:16.125Z,14.80
2019-04-04T21:19:47.690Z,14.90
2019-04-04T21:22:27.368Z,14.90
2019-04-04T21:24:50.269Z,14.90
2019-04-04T21:27:20.826Z,14.90
2019-04-04T21:29:51.423Z,14.90
2019-04-04T21:32:21.940Z,14.90
2019-04-04T21:34:52.574Z,14.90
2019-04-04T21:37:23.170Z,14.90
2019-04-04T21:39:53.866Z,14.90
2019-04-04T21:42:24.329Z,14.90
2019-04-04T21:44:54.929Z,14.80
2019-04-04T21:47:25.897Z,14.80
2019-04-04T21:49:56.499Z,14.90
2019-04-04T21:52:27.001Z,14.90
2019-04-04T21:54:57.600Z,14.90
2019-04-04T21:57:28.114Z,14.80
2019-04-04T21:59:58.653Z,14.80
2019-04-04T22:02:30.203Z,14.80
2019-04-04T22:05:00.681Z,14.80
2019-04-04T22:07:31.259Z,14.70
2019-04-04T22:10:01.721Z,14.70
2019-04-04T22:12:32.773Z,14.60
2019-04-04T22:15:03.247Z,14.50
2019-04-04T22:17:34.008Z,14.50
2019-04-04T22:20:04.985Z,14.50
2019-04-04T22:22:35.561Z,14.40
2019-04-04T22:25:06.594Z,14.40
2019-04-04T22:27:37.045Z,14.40
2019-04-04T22:30:08.469Z,14.40
2019-04-04T22:32:38.929Z,14.40
2019-04-04T22:35:11.444Z,14.40
2019-04-04T22:37:44.005Z,14.30
2019-04-04T22:40:14.783Z,14.30
2019-04-04T22:42:45.320Z,14.20
2019-04-04T22:45:16.166Z,14.20
2019-04-04T22:47:46.681Z,14.20
2019-04-04T22:50:19.569Z,14.10
2019-04-04T22:52:50.009Z,14.10
2019-04-04T22:55:20.520Z,14.00
2019-04-04T22:57:51.152Z,13.90
2019-04-04T23:00:21.821Z,14.00
2019-04-04T23:02:52.399Z,13.90
2019-04-04T23:05:22.886Z,13.90
2019-04-04T23:07:53.393Z,13.90
2019-04-04T23:10:23.905Z,13.90
2019-04-04T23:12:55.675Z,13.90
2019-04-04T23:15:26.289Z,13.80
2019-04-04T23:17:56.840Z,13.80
2019-04-04T23:20:27.344Z,13.80
2019-04-04T23:22:57.830Z,13.80
2019-04-04T23:25:28.495Z,13.70
2019-04-04T23:27:58.951Z,13.70
2019-04-04T23:30:29.482Z,13.70
2019-04-04T23:32:59.975Z,13.70
2019-04-04T23:35:30.556Z,13.70
2019-04-04T23:38:01.143Z,13.60
2019-04-04T23:40:31.843Z,13.60
2019-04-04T23:43:02.366Z,13.50
2019-04-04T23:45:32.889Z,13.40
2019-04-04T23:48:03.371Z,13.40
2019-04-04T23:50:33.863Z,13.30
2019-04-04T23:53:05.442Z,13.20
2019-04-04T23:55:35.933Z,13.10
2019-04-04T23:58:06.462Z,13.10
